sensor_id;sensor_type;location;lat;lon;timestamp;temperature;humidity
702;DHT22;334;48.808;9.222;2023-05-10T00:00:13;17.80;19.80
702;DHT22;334;48.808;9.222;2023-05-10T00:01:16;17.80;19.70
702;DHT22;334;48.808;9.222;2023-05-10T00:02:17;17.80;19.90
702;DHT22;334;48.808;9.222;2023-05-10T00:03:19;18.00;20.10
702;DHT22;334;48.808;9.222;2023-05-10T00:04:21;17.80;20.00
702;DHT22;334;48.808;9.222;2023-05-10T00:05:23;17.80;19.30
702;DHT22;334;48.808;9.222;2023-05-10T00:06:24;17.80;19.00
702;DHT22;334;48.808;9.222;2023-05-10T00:07:28;17.70;18.50
702;DHT22;334;48.808;9.222;2023-05-10T00:08:30;17.70;18.30
702;DHT22;334;48.808;9.222;2023-05-10T00:09:32;17.70;17.60
702;DHT22;334;48.808;9.222;2023-05-10T00:10:34;17.60;16.90
702;DHT22;334;48.808;9.222;2023-05-10T00:11:36;17.60;17.50
702;DHT22;334;48.808;9.222;2023-05-10T00:12:37;17.50;16.80
702;DHT22;334;48.808;9.222;2023-05-10T00:13:39;17.50;17.40
702;DHT22;334;48.808;9.222;2023-05-10T00:14:41;17.40;17.60
702;DHT22;334;48.808;9.222;2023-05-10T00:15:43;17.50;16.80
702;DHT22;334;48.808;9.222;2023-05-10T00:16:44;17.40;16.20
702;DHT22;334;48.808;9.222;2023-05-10T00:17:48;17.40;16.90
702;DHT22;334;48.808;9.222;2023-05-10T00:18:50;17.40;16.60
702;DHT22;334;48.808;9.222;2023-05-10T00:19:51;17.30;15.60
702;DHT22;334;48.808;9.222;2023-05-10T00:20:53;17.30;16.00
702;DHT22;334;48.808;9.222;2023-05-10T00:21:55;17.30;16.30
702;DHT22;334;48.808;9.222;2023-05-10T00:22:57;17.30;16.20
702;DHT22;334;48.808;9.222;2023-05-10T00:23:59;17.20;15.90
702;DHT22;334;48.808;9.222;2023-05-10T00:25:01;17.20;15.40
702;DHT22;334;48.808;9.222;2023-05-10T00:26:03;17.20;14.10
702;DHT22;334;48.808;9.222;2023-05-10T00:27:05;17.10;13.80
702;DHT22;334;48.808;9.222;2023-05-10T00:28:06;17.10;13.90
702;DHT22;334;48.808;9.222;2023-05-10T00:29:08;17.00;13.50
702;DHT22;334;48.808;9.222;2023-05-10T00:30:10;17.00;13.90
702;DHT22;334;48.808;9.222;2023-05-10T00:31:12;17.00;13.50
702;DHT22;334;48.808;9.222;2023-05-10T00:32:13;16.90;13.50
702;DHT22;334;48.808;9.222;2023-05-10T00:33:15;16.90;14.40
702;DHT22;334;48.808;9.222;2023-05-10T00:34:19;16.90;13.50
702;DHT22;334;48.808;9.222;2023-05-10T00:35:21;16.80;13.60
702;DHT22;334;48.808;9.222;2023-05-10T00:36:23;16.90;13.70
702;DHT22;334;48.808;9.222;2023-05-10T00:37:25;16.80;13.40
702;DHT22;334;48.808;9.222;2023-05-10T00:38:27;16.80;13.10
702;DHT22;334;48.808;9.222;2023-05-10T00:39:29;16.80;13.40
702;DHT22;334;48.808;9.222;2023-05-10T00:40:30;16.80;13.40
702;DHT22;334;48.808;9.222;2023-05-10T00:41:32;16.80;13.40
702;DHT22;334;48.808;9.222;2023-05-10T00:42:34;16.80;13.40
702;DHT22;334;48.808;9.222;2023-05-10T00:43:36;16.70;13.30
702;DHT22;334;48.808;9.222;2023-05-10T00:44:37;16.70;13.30
702;DHT22;334;48.808;9.222;2023-05-10T00:45:40;16.70;12.80
702;DHT22;334;48.808;9.222;2023-05-10T00:46:42;16.80;13.40
702;DHT22;334;48.808;9.222;2023-05-10T00:47:45;16.60;13.30
702;DHT22;334;48.808;9.222;2023-05-10T00:48:47;16.60;13.30
702;DHT22;334;48.808;9.222;2023-05-10T00:49:49;16.60;13.30
702;DHT22;334;48.808;9.222;2023-05-10T00:50:51;16.50;13.20
702;DHT22;334;48.808;9.222;2023-05-10T00:51:53;16.50;13.20
702;DHT22;334;48.808;9.222;2023-05-10T00:52:54;16.50;13.20
702;DHT22;334;48.808;9.222;2023-05-10T00:53:57;16.50;13.30
702;DHT22;334;48.808;9.222;2023-05-10T00:54:58;16.50;13.20
702;DHT22;334;48.808;9.222;2023-05-10T00:56:03;16.40;13.10
702;DHT22;334;48.808;9.222;2023-05-10T00:57:05;16.40;13.10
702;DHT22;334;48.808;9.222;2023-05-10T00:58:07;16.40;13.40
702;DHT22;334;48.808;9.222;2023-05-10T00:59:09;16.40;13.10
702;DHT22;334;48.808;9.222;2023-05-10T01:00:12;16.40;13.60
702;DHT22;334;48.808;9.222;2023-05-10T01:01:14;16.40;13.90
702;DHT22;334;48.808;9.222;2023-05-10T01:02:16;16.40;14.00
702;DHT22;334;48.808;9.222;2023-05-10T01:03:18;16.40;14.10
702;DHT22;334;48.808;9.222;2023-05-10T01:04:21;16.40;13.90
702;DHT22;334;48.808;9.222;2023-05-10T01:05:27;16.40;14.30
702;DHT22;334;48.808;9.222;2023-05-10T01:06:29;16.40;14.60
702;DHT22;334;48.808;9.222;2023-05-10T01:07:31;16.40;14.60
702;DHT22;334;48.808;9.222;2023-05-10T01:08:33;16.40;13.90
702;DHT22;334;48.808;9.222;2023-05-10T01:09:38;16.30;13.10
702;DHT22;334;48.808;9.222;2023-05-10T01:10:41;16.30;13.90
702;DHT22;334;48.808;9.222;2023-05-10T01:11:43;16.30;14.10
702;DHT22;334;48.808;9.222;2023-05-10T01:12:49;16.30;14.30
702;DHT22;334;48.808;9.222;2023-05-10T01:13:55;16.30;14.20
702;DHT22;334;48.808;9.222;2023-05-10T01:14:58;16.30;13.90
702;DHT22;334;48.808;9.222;2023-05-10T01:16:00;16.30;13.90
702;DHT22;334;48.808;9.222;2023-05-10T01:17:08;16.30;13.90
702;DHT22;334;48.808;9.222;2023-05-10T01:18:12;16.30;14.00
702;DHT22;334;48.808;9.222;2023-05-10T01:20:21;16.30;14.10
702;DHT22;334;48.808;9.222;2023-05-10T01:21:49;16.20;14.10
702;DHT22;334;48.808;9.222;2023-05-10T01:24:40;16.30;13.80
702;DHT22;334;48.808;9.222;2023-05-10T01:30:30;16.20;13.70
702;DHT22;334;48.808;9.222;2023-05-10T01:35:21;16.20;13.20
702;DHT22;334;48.808;9.222;2023-05-10T01:36:31;16.20;13.80
702;DHT22;334;48.808;9.222;2023-05-10T01:40:42;16.10;12.90
702;DHT22;334;48.808;9.222;2023-05-10T01:41:55;16.10;12.90
702;DHT22;334;48.808;9.222;2023-05-10T01:43:02;16.10;13.10
702;DHT22;334;48.808;9.222;2023-05-10T01:44:35;16.10;13.20
702;DHT22;334;48.808;9.222;2023-05-10T01:46:02;16.10;13.80
702;DHT22;334;48.808;9.222;2023-05-10T01:48:28;16.00;14.10
702;DHT22;334;48.808;9.222;2023-05-10T01:49:37;16.00;13.80
702;DHT22;334;48.808;9.222;2023-05-10T01:50:43;16.00;13.90
702;DHT22;334;48.808;9.222;2023-05-10T01:51:49;16.00;13.70
702;DHT22;334;48.808;9.222;2023-05-10T01:52:58;16.00;13.70
702;DHT22;334;48.808;9.222;2023-05-10T01:54:02;16.10;13.80
702;DHT22;334;48.808;9.222;2023-05-10T01:55:07;16.10;13.30
702;DHT22;334;48.808;9.222;2023-05-10T01:56:11;16.10;13.60
702;DHT22;334;48.808;9.222;2023-05-10T01:57:15;16.10;13.50
702;DHT22;334;48.808;9.222;2023-05-10T01:58:28;16.10;14.00
702;DHT22;334;48.808;9.222;2023-05-10T01:59:34;16.10;13.90
702;DHT22;334;48.808;9.222;2023-05-10T02:00:44;16.10;13.90
702;DHT22;334;48.808;9.222;2023-05-10T02:01:48;16.10;13.60
702;DHT22;334;48.808;9.222;2023-05-10T02:02:52;16.10;13.50
702;DHT22;334;48.808;9.222;2023-05-10T02:03:55;16.10;13.90
702;DHT22;334;48.808;9.222;2023-05-10T02:04:59;16.10;14.00
702;DHT22;334;48.808;9.222;2023-05-10T02:06:01;16.20;14.50
702;DHT22;334;48.808;9.222;2023-05-10T02:07:06;16.20;14.20
702;DHT22;334;48.808;9.222;2023-05-10T02:08:08;16.20;14.00
702;DHT22;334;48.808;9.222;2023-05-10T02:09:11;16.20;13.80
702;DHT22;334;48.808;9.222;2023-05-10T02:10:14;16.20;13.90
702;DHT22;334;48.808;9.222;2023-05-10T02:11:18;16.20;14.00
702;DHT22;334;48.808;9.222;2023-05-10T02:12:23;16.50;14.60
702;DHT22;334;48.808;9.222;2023-05-10T02:13:27;16.30;14.60
702;DHT22;334;48.808;9.222;2023-05-10T02:14:36;16.30;15.10
702;DHT22;334;48.808;9.222;2023-05-10T02:15:39;16.40;15.00
702;DHT22;334;48.808;9.222;2023-05-10T02:16:42;16.40;15.00
702;DHT22;334;48.808;9.222;2023-05-10T02:17:46;16.40;14.90
702;DHT22;334;48.808;9.222;2023-05-10T02:18:51;16.50;15.00
702;DHT22;334;48.808;9.222;2023-05-10T02:19:54;16.50;15.30
702;DHT22;334;48.808;9.222;2023-05-10T02:20:58;16.50;14.90
702;DHT22;334;48.808;9.222;2023-05-10T02:22:00;16.50;14.90
702;DHT22;334;48.808;9.222;2023-05-10T02:23:04;16.50;14.50
702;DHT22;334;48.808;9.222;2023-05-10T02:24:07;16.50;14.20
702;DHT22;334;48.808;9.222;2023-05-10T02:25:11;16.50;14.00
702;DHT22;334;48.808;9.222;2023-05-10T02:26:16;16.50;13.60
702;DHT22;334;48.808;9.222;2023-05-10T02:27:19;16.50;13.20
702;DHT22;334;48.808;9.222;2023-05-10T02:28:23;16.50;13.20
702;DHT22;334;48.808;9.222;2023-05-10T02:29:27;16.50;13.20
702;DHT22;334;48.808;9.222;2023-05-10T02:30:31;16.40;12.80
702;DHT22;334;48.808;9.222;2023-05-10T02:31:34;16.40;12.20
702;DHT22;334;48.808;9.222;2023-05-10T02:32:38;16.40;12.50
702;DHT22;334;48.808;9.222;2023-05-10T02:33:40;16.40;12.70
702;DHT22;334;48.808;9.222;2023-05-10T02:34:44;16.30;12.60
702;DHT22;334;48.808;9.222;2023-05-10T02:35:47;16.30;13.10
702;DHT22;334;48.808;9.222;2023-05-10T02:36:50;16.30;13.10
702;DHT22;334;48.808;9.222;2023-05-10T02:37:54;16.30;13.10
702;DHT22;334;48.808;9.222;2023-05-10T02:38:57;16.30;13.10
702;DHT22;334;48.808;9.222;2023-05-10T02:40:00;16.30;13.10
702;DHT22;334;48.808;9.222;2023-05-10T02:41:05;16.30;13.10
702;DHT22;334;48.808;9.222;2023-05-10T02:42:24;16.30;13.10
702;DHT22;334;48.808;9.222;2023-05-10T02:43:30;16.30;13.10
702;DHT22;334;48.808;9.222;2023-05-10T02:44:33;16.30;13.10
702;DHT22;334;48.808;9.222;2023-05-10T02:45:36;16.20;13.00
702;DHT22;334;48.808;9.222;2023-05-10T02:46:38;16.30;13.10
702;DHT22;334;48.808;9.222;2023-05-10T02:47:40;16.20;13.00
702;DHT22;334;48.808;9.222;2023-05-10T02:48:42;16.30;13.10
702;DHT22;334;48.808;9.222;2023-05-10T02:49:44;16.20;13.00
702;DHT22;334;48.808;9.222;2023-05-10T02:50:47;16.30;13.10
702;DHT22;334;48.808;9.222;2023-05-10T02:51:56;16.30;13.10
702;DHT22;334;48.808;9.222;2023-05-10T02:53:01;16.30;13.10
702;DHT22;334;48.808;9.222;2023-05-10T02:54:11;16.30;13.10
702;DHT22;334;48.808;9.222;2023-05-10T02:55:15;16.30;13.80
702;DHT22;334;48.808;9.222;2023-05-10T02:56:25;16.30;13.70
702;DHT22;334;48.808;9.222;2023-05-10T02:57:33;16.30;13.50
702;DHT22;334;48.808;9.222;2023-05-10T02:58:36;16.30;13.10
702;DHT22;334;48.808;9.222;2023-05-10T02:59:38;16.30;13.10
702;DHT22;334;48.808;9.222;2023-05-10T03:00:40;16.30;13.10
702;DHT22;334;48.808;9.222;2023-05-10T03:01:42;16.30;13.10
702;DHT22;334;48.808;9.222;2023-05-10T03:02:44;16.30;13.10
702;DHT22;334;48.808;9.222;2023-05-10T03:03:46;16.40;13.40
702;DHT22;334;48.808;9.222;2023-05-10T03:04:49;16.40;13.10
702;DHT22;334;48.808;9.222;2023-05-10T03:05:51;16.40;13.10
702;DHT22;334;48.808;9.222;2023-05-10T03:06:55;16.40;13.10
702;DHT22;334;48.808;9.222;2023-05-10T03:07:57;16.40;13.10
702;DHT22;334;48.808;9.222;2023-05-10T03:08:59;16.40;13.10
702;DHT22;334;48.808;9.222;2023-05-10T03:10:01;16.40;13.10
702;DHT22;334;48.808;9.222;2023-05-10T03:11:22;16.40;13.10
702;DHT22;334;48.808;9.222;2023-05-10T03:15:42;16.40;12.30
702;DHT22;334;48.808;9.222;2023-05-10T03:17:28;16.40;12.60
702;DHT22;334;48.808;9.222;2023-05-10T03:18:29;16.40;13.10
702;DHT22;334;48.808;9.222;2023-05-10T03:19:54;16.40;14.30
702;DHT22;334;48.808;9.222;2023-05-10T03:21:01;16.40;13.80
702;DHT22;334;48.808;9.222;2023-05-10T03:22:10;16.40;13.70
702;DHT22;334;48.808;9.222;2023-05-10T03:24:16;16.40;14.70
702;DHT22;334;48.808;9.222;2023-05-10T03:25:20;16.40;15.20
702;DHT22;334;48.808;9.222;2023-05-10T03:26:27;16.40;14.60
702;DHT22;334;48.808;9.222;2023-05-10T03:27:30;16.40;14.40
702;DHT22;334;48.808;9.222;2023-05-10T03:28:34;16.40;14.40
702;DHT22;334;48.808;9.222;2023-05-10T03:29:36;16.40;14.50
702;DHT22;334;48.808;9.222;2023-05-10T03:30:38;16.40;14.20
702;DHT22;334;48.808;9.222;2023-05-10T03:31:40;16.40;14.00
702;DHT22;334;48.808;9.222;2023-05-10T03:32:42;16.40;13.50
702;DHT22;334;48.808;9.222;2023-05-10T03:33:48;16.40;13.10
702;DHT22;334;48.808;9.222;2023-05-10T03:34:50;16.40;13.10
702;DHT22;334;48.808;9.222;2023-05-10T03:35:52;16.40;12.60
702;DHT22;334;48.808;9.222;2023-05-10T03:36:53;16.40;13.40
702;DHT22;334;48.808;9.222;2023-05-10T03:37:55;16.30;13.00
702;DHT22;334;48.808;9.222;2023-05-10T03:38:57;16.40;13.10
702;DHT22;334;48.808;9.222;2023-05-10T03:39:58;16.40;13.10
702;DHT22;334;48.808;9.222;2023-05-10T03:41:01;16.40;13.10
702;DHT22;334;48.808;9.222;2023-05-10T03:42:03;16.40;13.10
702;DHT22;334;48.808;9.222;2023-05-10T03:43:05;16.40;13.10
702;DHT22;334;48.808;9.222;2023-05-10T03:44:07;16.50;13.20
702;DHT22;334;48.808;9.222;2023-05-10T03:45:09;16.40;12.70
702;DHT22;334;48.808;9.222;2023-05-10T03:46:11;16.40;12.20
702;DHT22;334;48.808;9.222;2023-05-10T03:47:12;16.50;12.30
702;DHT22;334;48.808;9.222;2023-05-10T03:48:14;16.40;12.20
702;DHT22;334;48.808;9.222;2023-05-10T03:49:16;16.50;12.10
702;DHT22;334;48.808;9.222;2023-05-10T03:50:18;16.40;11.40
702;DHT22;334;48.808;9.222;2023-05-10T03:51:20;16.40;11.60
702;DHT22;334;48.808;9.222;2023-05-10T03:52:23;16.40;11.50
702;DHT22;334;48.808;9.222;2023-05-10T03:53:24;16.50;11.60
702;DHT22;334;48.808;9.222;2023-05-10T03:54:27;16.40;11.30
702;DHT22;334;48.808;9.222;2023-05-10T03:55:29;16.40;11.70
702;DHT22;334;48.808;9.222;2023-05-10T03:56:31;16.40;12.10
702;DHT22;334;48.808;9.222;2023-05-10T03:57:33;16.40;12.00
702;DHT22;334;48.808;9.222;2023-05-10T03:58:36;16.40;11.70
702;DHT22;334;48.808;9.222;2023-05-10T03:59:38;16.40;11.20
702;DHT22;334;48.808;9.222;2023-05-10T04:00:40;16.40;11.40
702;DHT22;334;48.808;9.222;2023-05-10T04:01:45;16.40;11.40
702;DHT22;334;48.808;9.222;2023-05-10T04:02:47;16.40;11.40
702;DHT22;334;48.808;9.222;2023-05-10T04:03:49;16.40;11.40
702;DHT22;334;48.808;9.222;2023-05-10T04:04:51;16.40;11.20
702;DHT22;334;48.808;9.222;2023-05-10T04:06:02;16.40;11.10
702;DHT22;334;48.808;9.222;2023-05-10T04:07:04;16.40;11.40
702;DHT22;334;48.808;9.222;2023-05-10T04:08:06;16.40;11.50
702;DHT22;334;48.808;9.222;2023-05-10T04:09:08;16.40;11.90
702;DHT22;334;48.808;9.222;2023-05-10T04:10:10;16.40;11.50
702;DHT22;334;48.808;9.222;2023-05-10T04:11:12;16.40;11.80
702;DHT22;334;48.808;9.222;2023-05-10T04:12:15;16.40;12.40
702;DHT22;334;48.808;9.222;2023-05-10T04:13:17;16.40;12.10
702;DHT22;334;48.808;9.222;2023-05-10T04:14:18;16.40;12.40
702;DHT22;334;48.808;9.222;2023-05-10T04:15:20;16.40;12.60
702;DHT22;334;48.808;9.222;2023-05-10T04:16:22;16.40;12.20
702;DHT22;334;48.808;9.222;2023-05-10T04:17:32;16.50;12.70
702;DHT22;334;48.808;9.222;2023-05-10T04:18:34;16.20;13.00
702;DHT22;334;48.808;9.222;2023-05-10T04:19:38;16.50;13.20
702;DHT22;334;48.808;9.222;2023-05-10T04:20:40;16.50;12.50
702;DHT22;334;48.808;9.222;2023-05-10T04:21:41;16.50;12.10
702;DHT22;334;48.808;9.222;2023-05-10T04:22:44;16.50;11.70
702;DHT22;334;48.808;9.222;2023-05-10T04:23:46;16.40;11.60
702;DHT22;334;48.808;9.222;2023-05-10T04:24:47;16.50;11.80
702;DHT22;334;48.808;9.222;2023-05-10T04:25:49;16.50;11.20
702;DHT22;334;48.808;9.222;2023-05-10T04:26:51;16.50;11.30
702;DHT22;334;48.808;9.222;2023-05-10T04:27:53;16.50;11.20
702;DHT22;334;48.808;9.222;2023-05-10T04:28:54;16.50;11.10
702;DHT22;334;48.808;9.222;2023-05-10T04:29:56;16.50;11.20
702;DHT22;334;48.808;9.222;2023-05-10T04:31:06;16.50;11.10
702;DHT22;334;48.808;9.222;2023-05-10T04:32:08;16.50;11.40
702;DHT22;334;48.808;9.222;2023-05-10T04:33:11;16.50;11.30
702;DHT22;334;48.808;9.222;2023-05-10T04:34:13;16.50;11.40
702;DHT22;334;48.808;9.222;2023-05-10T04:35:15;16.50;11.40
702;DHT22;334;48.808;9.222;2023-05-10T04:36:16;16.50;11.30
702;DHT22;334;48.808;9.222;2023-05-10T04:37:18;16.40;11.10
702;DHT22;334;48.808;9.222;2023-05-10T04:38:21;16.40;11.20
702;DHT22;334;48.808;9.222;2023-05-10T04:39:23;16.40;11.20
702;DHT22;334;48.808;9.222;2023-05-10T04:40:25;16.40;11.40
702;DHT22;334;48.808;9.222;2023-05-10T04:41:27;16.40;11.50
702;DHT22;334;48.808;9.222;2023-05-10T04:42:30;16.40;11.70
702;DHT22;334;48.808;9.222;2023-05-10T04:43:32;16.40;11.70
702;DHT22;334;48.808;9.222;2023-05-10T04:44:35;16.60;11.60
702;DHT22;334;48.808;9.222;2023-05-10T04:45:38;16.40;11.70
702;DHT22;334;48.808;9.222;2023-05-10T04:46:39;16.40;11.40
702;DHT22;334;48.808;9.222;2023-05-10T04:47:41;16.40;11.40
702;DHT22;334;48.808;9.222;2023-05-10T04:48:43;16.30;10.80
702;DHT22;334;48.808;9.222;2023-05-10T04:49:45;16.40;11.20
702;DHT22;334;48.808;9.222;2023-05-10T04:50:47;16.30;11.50
702;DHT22;334;48.808;9.222;2023-05-10T04:51:50;16.40;11.30
702;DHT22;334;48.808;9.222;2023-05-10T04:52:52;16.30;11.50
702;DHT22;334;48.808;9.222;2023-05-10T04:53:54;16.30;11.70
702;DHT22;334;48.808;9.222;2023-05-10T04:55:07;16.30;11.70
702;DHT22;334;48.808;9.222;2023-05-10T04:56:11;16.40;11.70
702;DHT22;334;48.808;9.222;2023-05-10T04:57:13;16.40;11.80
702;DHT22;334;48.808;9.222;2023-05-10T04:58:15;16.40;11.60
702;DHT22;334;48.808;9.222;2023-05-10T04:59:17;16.40;11.50
702;DHT22;334;48.808;9.222;2023-05-10T05:00:19;16.40;10.70
702;DHT22;334;48.808;9.222;2023-05-10T05:01:21;16.40;10.50
702;DHT22;334;48.808;9.222;2023-05-10T05:02:25;16.30;10.80
702;DHT22;334;48.808;9.222;2023-05-10T05:03:28;16.40;10.80
702;DHT22;334;48.808;9.222;2023-05-10T05:04:30;16.30;10.60
702;DHT22;334;48.808;9.222;2023-05-10T05:05:33;16.30;10.90
702;DHT22;334;48.808;9.222;2023-05-10T05:06:34;16.30;10.90
702;DHT22;334;48.808;9.222;2023-05-10T05:07:36;16.30;11.00
702;DHT22;334;48.808;9.222;2023-05-10T05:08:41;16.30;10.60
702;DHT22;334;48.808;9.222;2023-05-10T05:09:43;16.30;10.90
702;DHT22;334;48.808;9.222;2023-05-10T05:10:45;16.30;10.90
702;DHT22;334;48.808;9.222;2023-05-10T05:11:46;16.30;10.70
702;DHT22;334;48.808;9.222;2023-05-10T05:12:48;16.30;10.70
702;DHT22;334;48.808;9.222;2023-05-10T05:13:50;16.30;10.60
702;DHT22;334;48.808;9.222;2023-05-10T05:14:51;16.30;10.20
702;DHT22;334;48.808;9.222;2023-05-10T05:15:53;16.30;10.30
702;DHT22;334;48.808;9.222;2023-05-10T05:16:56;16.30;10.70
702;DHT22;334;48.808;9.222;2023-05-10T05:17:58;16.40;10.80
702;DHT22;334;48.808;9.222;2023-05-10T05:19:00;16.30;10.50
702;DHT22;334;48.808;9.222;2023-05-10T05:20:02;16.30;10.70
702;DHT22;334;48.808;9.222;2023-05-10T05:21:17;16.30;10.70
702;DHT22;334;48.808;9.222;2023-05-10T05:22:19;16.30;10.20
702;DHT22;334;48.808;9.222;2023-05-10T05:23:28;16.30;10.50
702;DHT22;334;48.808;9.222;2023-05-10T05:24:35;16.30;10.10
702;DHT22;334;48.808;9.222;2023-05-10T05:25:37;16.30;10.50
702;DHT22;334;48.808;9.222;2023-05-10T05:26:39;16.30;10.60
702;DHT22;334;48.808;9.222;2023-05-10T05:27:42;16.30;10.70
702;DHT22;334;48.808;9.222;2023-05-10T05:28:44;16.30;10.20
702;DHT22;334;48.808;9.222;2023-05-10T05:29:46;16.30;10.20
702;DHT22;334;48.808;9.222;2023-05-10T05:30:48;16.30;10.50
702;DHT22;334;48.808;9.222;2023-05-10T05:31:49;16.40;10.80
702;DHT22;334;48.808;9.222;2023-05-10T05:32:54;16.40;10.60
702;DHT22;334;48.808;9.222;2023-05-10T05:33:56;16.40;10.40
702;DHT22;334;48.808;9.222;2023-05-10T05:34:58;16.50;10.70
702;DHT22;334;48.808;9.222;2023-05-10T05:36:02;16.50;11.00
702;DHT22;334;48.808;9.222;2023-05-10T05:37:03;16.50;10.40
702;DHT22;334;48.808;9.222;2023-05-10T05:38:05;16.60;9.90
702;DHT22;334;48.808;9.222;2023-05-10T05:39:07;16.60;9.70
702;DHT22;334;48.808;9.222;2023-05-10T05:40:12;16.50;9.50
702;DHT22;334;48.808;9.222;2023-05-10T05:41:14;16.60;9.40
702;DHT22;334;48.808;9.222;2023-05-10T05:42:16;16.60;9.30
702;DHT22;334;48.808;9.222;2023-05-10T05:43:20;16.60;9.40
702;DHT22;334;48.808;9.222;2023-05-10T05:44:22;16.60;9.30
702;DHT22;334;48.808;9.222;2023-05-10T05:45:24;16.70;9.40
702;DHT22;334;48.808;9.222;2023-05-10T05:46:26;16.70;8.50
702;DHT22;334;48.808;9.222;2023-05-10T05:47:28;16.80;8.50
702;DHT22;334;48.808;9.222;2023-05-10T05:48:30;16.70;8.40
702;DHT22;334;48.808;9.222;2023-05-10T05:49:33;16.70;7.90
702;DHT22;334;48.808;9.222;2023-05-10T05:50:34;16.70;8.10
702;DHT22;334;48.808;9.222;2023-05-10T05:51:37;16.60;7.90
702;DHT22;334;48.808;9.222;2023-05-10T05:52:40;16.60;8.40
702;DHT22;334;48.808;9.222;2023-05-10T05:53:42;16.70;8.10
702;DHT22;334;48.808;9.222;2023-05-10T05:54:44;16.70;8.30
702;DHT22;334;48.808;9.222;2023-05-10T05:55:57;16.70;8.10
702;DHT22;334;48.808;9.222;2023-05-10T05:57:00;16.70;7.10
702;DHT22;334;48.808;9.222;2023-05-10T05:58:02;16.70;7.60
702;DHT22;334;48.808;9.222;2023-05-10T05:59:04;16.70;7.80
702;DHT22;334;48.808;9.222;2023-05-10T06:00:06;16.70;7.80
702;DHT22;334;48.808;9.222;2023-05-10T06:01:08;16.70;7.60
702;DHT22;334;48.808;9.222;2023-05-10T06:02:10;16.70;7.70
702;DHT22;334;48.808;9.222;2023-05-10T06:03:12;16.70;7.80
702;DHT22;334;48.808;9.222;2023-05-10T06:04:14;16.70;7.60
702;DHT22;334;48.808;9.222;2023-05-10T06:05:16;16.70;7.40
702;DHT22;334;48.808;9.222;2023-05-10T06:06:18;16.70;7.20
702;DHT22;334;48.808;9.222;2023-05-10T06:07:20;16.70;7.50
702;DHT22;334;48.808;9.222;2023-05-10T06:08:23;16.70;7.60
702;DHT22;334;48.808;9.222;2023-05-10T06:09:24;16.70;7.90
702;DHT22;334;48.808;9.222;2023-05-10T06:10:28;16.70;8.10
702;DHT22;334;48.808;9.222;2023-05-10T06:11:32;16.70;8.10
702;DHT22;334;48.808;9.222;2023-05-10T06:12:34;16.70;7.20
702;DHT22;334;48.808;9.222;2023-05-10T06:13:36;16.80;7.50
702;DHT22;334;48.808;9.222;2023-05-10T06:14:39;16.80;6.70
702;DHT22;334;48.808;9.222;2023-05-10T06:15:42;16.80;7.10
702;DHT22;334;48.808;9.222;2023-05-10T06:16:44;16.80;6.70
702;DHT22;334;48.808;9.222;2023-05-10T06:17:46;16.80;6.60
702;DHT22;334;48.808;9.222;2023-05-10T06:18:53;16.80;5.70
702;DHT22;334;48.808;9.222;2023-05-10T06:19:55;16.80;6.00
702;DHT22;334;48.808;9.222;2023-05-10T06:20:59;16.80;6.00
702;DHT22;334;48.808;9.222;2023-05-10T06:22:00;16.80;6.50
702;DHT22;334;48.808;9.222;2023-05-10T06:23:02;16.80;6.70
702;DHT22;334;48.808;9.222;2023-05-10T06:24:05;16.80;6.70
702;DHT22;334;48.808;9.222;2023-05-10T06:25:09;16.80;6.10
702;DHT22;334;48.808;9.222;2023-05-10T06:26:11;16.80;6.20
702;DHT22;334;48.808;9.222;2023-05-10T06:27:15;16.80;6.30
702;DHT22;334;48.808;9.222;2023-05-10T06:28:18;16.80;6.50
702;DHT22;334;48.808;9.222;2023-05-10T06:29:20;16.80;6.50
702;DHT22;334;48.808;9.222;2023-05-10T06:30:25;16.80;6.50
702;DHT22;334;48.808;9.222;2023-05-10T06:31:30;16.80;6.80
702;DHT22;334;48.808;9.222;2023-05-10T06:32:58;16.80;6.50
702;DHT22;334;48.808;9.222;2023-05-10T06:34:04;16.80;6.00
702;DHT22;334;48.808;9.222;2023-05-10T06:35:08;16.80;6.00
702;DHT22;334;48.808;9.222;2023-05-10T06:36:16;16.80;6.20
702;DHT22;334;48.808;9.222;2023-05-10T06:37:18;16.80;6.50
702;DHT22;334;48.808;9.222;2023-05-10T06:38:19;16.80;6.70
702;DHT22;334;48.808;9.222;2023-05-10T06:39:21;16.80;6.20
702;DHT22;334;48.808;9.222;2023-05-10T06:40:25;16.90;5.90
702;DHT22;334;48.808;9.222;2023-05-10T06:41:32;16.80;6.20
702;DHT22;334;48.808;9.222;2023-05-10T06:42:37;16.80;5.70
702;DHT22;334;48.808;9.222;2023-05-10T06:43:43;16.80;5.60
702;DHT22;334;48.808;9.222;2023-05-10T06:44:47;16.80;5.60
702;DHT22;334;48.808;9.222;2023-05-10T06:45:51;16.80;5.60
702;DHT22;334;48.808;9.222;2023-05-10T06:46:54;16.80;5.60
702;DHT22;334;48.808;9.222;2023-05-10T06:47:57;16.80;5.60
702;DHT22;334;48.808;9.222;2023-05-10T06:48:59;16.90;5.70
702;DHT22;334;48.808;9.222;2023-05-10T06:50:02;16.90;5.70
702;DHT22;334;48.808;9.222;2023-05-10T06:51:05;16.80;5.80
702;DHT22;334;48.808;9.222;2023-05-10T06:52:10;16.90;6.00
702;DHT22;334;48.808;9.222;2023-05-10T06:53:15;16.90;6.10
702;DHT22;334;48.808;9.222;2023-05-10T06:54:18;16.90;6.30
702;DHT22;334;48.808;9.222;2023-05-10T06:55:19;17.00;6.40
702;DHT22;334;48.808;9.222;2023-05-10T06:56:21;17.00;5.70
702;DHT22;334;48.808;9.222;2023-05-10T06:57:25;16.90;4.20
702;DHT22;334;48.808;9.222;2023-05-10T06:58:32;16.90;5.70
702;DHT22;334;48.808;9.222;2023-05-10T06:59:35;16.90;5.70
702;DHT22;334;48.808;9.222;2023-05-10T07:00:38;16.80;4.80
702;DHT22;334;48.808;9.222;2023-05-10T07:01:42;16.80;5.20
702;DHT22;334;48.808;9.222;2023-05-10T07:02:44;16.80;5.60
702;DHT22;334;48.808;9.222;2023-05-10T07:03:47;16.80;5.60
702;DHT22;334;48.808;9.222;2023-05-10T07:04:48;16.70;5.50
702;DHT22;334;48.808;9.222;2023-05-10T07:05:50;16.70;5.00
702;DHT22;334;48.808;9.222;2023-05-10T07:06:52;16.70;5.50
702;DHT22;334;48.808;9.222;2023-05-10T07:07:54;16.70;5.30
702;DHT22;334;48.808;9.222;2023-05-10T07:08:56;16.70;4.70
702;DHT22;334;48.808;9.222;2023-05-10T07:09:59;16.70;5.40
702;DHT22;334;48.808;9.222;2023-05-10T07:11:02;16.70;5.50
702;DHT22;334;48.808;9.222;2023-05-10T07:12:05;16.70;4.90
702;DHT22;334;48.808;9.222;2023-05-10T07:13:09;16.80;5.20
